sensor_id;sensor_type;location;lat;lon;timestamp;P1;durP1;ratioP1;P2;durP2;ratioP2
25982;SDS011;13773;48.868;10.730;2022-08-19T00:00:13;20.53;;;18.53;;
25982;SDS011;13773;48.868;10.730;2022-08-19T00:02:40;22.13;;;20.23;;
25982;SDS011;13773;48.868;10.730;2022-08-19T00:05:07;22.17;;;20.10;;
25982;SDS011;13773;48.868;10.730;2022-08-19T00:07:35;22.90;;;20.90;;
25982;SDS011;13773;48.868;10.730;2022-08-19T00:10:02;22.10;;;20.10;;
25982;SDS011;13773;48.868;10.730;2022-08-19T00:12:31;24.70;;;22.37;;
25982;SDS011;13773;48.868;10.730;2022-08-19T00:14:57;24.23;;;22.10;;
25982;SDS011;13773;48.868;10.730;2022-08-19T00:17:23;24.50;;;22.17;;
25982;SDS011;13773;48.868;10.730;2022-08-19T00:19:49;23.07;;;20.87;;
25982;SDS011;13773;48.868;10.730;2022-08-19T00:22:14;24.37;;;22.13;;
25982;SDS011;13773;48.868;10.730;2022-08-19T00:24:42;26.33;;;23.70;;
25982;SDS011;13773;48.868;10.730;2022-08-19T00:27:11;25.23;;;22.63;;
25982;SDS011;13773;48.868;10.730;2022-08-19T00:29:37;26.93;;;24.53;;
25982;SDS011;13773;48.868;10.730;2022-08-19T00:32:03;26.27;;;23.73;;
25982;SDS011;13773;48.868;10.730;2022-08-19T00:34:30;26.00;;;23.60;;
25982;SDS011;13773;48.868;10.730;2022-08-19T00:36:55;26.50;;;24.10;;
25982;SDS011;13773;48.868;10.730;2022-08-19T00:39:22;27.17;;;24.67;;
25982;SDS011;13773;48.868;10.730;2022-08-19T00:41:50;28.33;;;25.53;;
25982;SDS011;13773;48.868;10.730;2022-08-19T00:44:20;28.37;;;25.73;;
25982;SDS011;13773;48.868;10.730;2022-08-19T00:46:49;28.13;;;25.47;;
25982;SDS011;13773;48.868;10.730;2022-08-19T00:51:47;28.87;;;26.10;;
25982;SDS011;13773;48.868;10.730;2022-08-19T00:54:16;30.63;;;27.63;;
25982;SDS011;13773;48.868;10.730;2022-08-19T00:56:43;30.07;;;27.17;;
25982;SDS011;13773;48.868;10.730;2022-08-19T00:59:10;30.00;;;26.90;;
25982;SDS011;13773;48.868;10.730;2022-08-19T01:01:36;31.17;;;28.07;;
25982;SDS011;13773;48.868;10.730;2022-08-19T01:04:06;31.87;;;28.67;;
25982;SDS011;13773;48.868;10.730;2022-08-19T01:06:32;32.03;;;28.90;;
25982;SDS011;13773;48.868;10.730;2022-08-19T01:09:00;30.23;;;27.13;;
25982;SDS011;13773;48.868;10.730;2022-08-19T01:11:26;33.20;;;29.90;;
25982;SDS011;13773;48.868;10.730;2022-08-19T01:13:53;32.33;;;29.00;;
25982;SDS011;13773;48.868;10.730;2022-08-19T01:16:20;32.77;;;29.43;;
25982;SDS011;13773;48.868;10.730;2022-08-19T01:18:49;31.17;;;28.17;;
25982;SDS011;13773;48.868;10.730;2022-08-19T01:21:22;33.47;;;29.90;;
25982;SDS011;13773;48.868;10.730;2022-08-19T01:23:51;33.33;;;30.03;;
25982;SDS011;13773;48.868;10.730;2022-08-19T01:26:18;33.13;;;29.83;;
25982;SDS011;13773;48.868;10.730;2022-08-19T01:28:46;35.30;;;31.67;;
25982;SDS011;13773;48.868;10.730;2022-08-19T01:31:15;34.97;;;31.27;;
25982;SDS011;13773;48.868;10.730;2022-08-19T01:33:43;36.83;;;33.00;;
25982;SDS011;13773;48.868;10.730;2022-08-19T01:36:11;39.03;;;33.57;;
25982;SDS011;13773;48.868;10.730;2022-08-19T01:38:46;39.40;;;35.23;;
25982;SDS011;13773;48.868;10.730;2022-08-19T01:41:13;43.77;;;37.50;;
25982;SDS011;13773;48.868;10.730;2022-08-19T01:43:39;41.80;;;37.30;;
25982;SDS011;13773;48.868;10.730;2022-08-19T01:46:05;42.13;;;37.57;;
25982;SDS011;13773;48.868;10.730;2022-08-19T01:48:36;45.90;;;40.27;;
25982;SDS011;13773;48.868;10.730;2022-08-19T01:51:04;46.27;;;38.53;;
25982;SDS011;13773;48.868;10.730;2022-08-19T01:53:31;44.53;;;36.33;;
25982;SDS011;13773;48.868;10.730;2022-08-19T01:55:58;51.97;;;41.23;;
25982;SDS011;13773;48.868;10.730;2022-08-19T01:58:24;46.10;;;38.87;;
25982;SDS011;13773;48.868;10.730;2022-08-19T02:00:55;49.57;;;40.77;;
25982;SDS011;13773;48.868;10.730;2022-08-19T02:03:22;50.47;;;40.50;;
25982;SDS011;13773;48.868;10.730;2022-08-19T02:05:48;48.87;;;39.10;;
25982;SDS011;13773;48.868;10.730;2022-08-19T02:08:19;46.17;;;39.67;;
25982;SDS011;13773;48.868;10.730;2022-08-19T02:10:45;49.67;;;42.00;;
25982;SDS011;13773;48.868;10.730;2022-08-19T02:13:12;46.77;;;39.60;;
25982;SDS011;13773;48.868;10.730;2022-08-19T02:15:39;42.67;;;38.03;;
25982;SDS011;13773;48.868;10.730;2022-08-19T02:18:05;44.43;;;37.40;;
25982;SDS011;13773;48.868;10.730;2022-08-19T02:20:32;45.67;;;37.97;;
25982;SDS011;13773;48.868;10.730;2022-08-19T02:22:58;45.30;;;39.07;;
25982;SDS011;13773;48.868;10.730;2022-08-19T02:25:26;46.00;;;41.00;;
25982;SDS011;13773;48.868;10.730;2022-08-19T02:27:52;45.37;;;39.03;;
25982;SDS011;13773;48.868;10.730;2022-08-19T02:30:18;48.23;;;40.93;;
25982;SDS011;13773;48.868;10.730;2022-08-19T02:32:44;45.67;;;40.30;;
25982;SDS011;13773;48.868;10.730;2022-08-19T02:35:11;47.50;;;38.43;;
25982;SDS011;13773;48.868;10.730;2022-08-19T02:37:38;44.63;;;38.43;;
25982;SDS011;13773;48.868;10.730;2022-08-19T02:40:23;48.20;;;40.87;;
25982;SDS011;13773;48.868;10.730;2022-08-19T02:42:48;51.13;;;42.17;;
25982;SDS011;13773;48.868;10.730;2022-08-19T02:45:14;47.80;;;40.70;;
25982;SDS011;13773;48.868;10.730;2022-08-19T02:47:40;47.10;;;39.73;;
25982;SDS011;13773;48.868;10.730;2022-08-19T02:50:06;47.93;;;39.73;;
25982;SDS011;13773;48.868;10.730;2022-08-19T02:52:32;47.80;;;39.10;;
25982;SDS011;13773;48.868;10.730;2022-08-19T02:54:59;51.07;;;42.00;;
25982;SDS011;13773;48.868;10.730;2022-08-19T02:57:26;49.67;;;41.80;;
25982;SDS011;13773;48.868;10.730;2022-08-19T02:59:52;48.97;;;40.67;;
25982;SDS011;13773;48.868;10.730;2022-08-19T03:02:18;50.17;;;41.97;;
25982;SDS011;13773;48.868;10.730;2022-08-19T03:04:44;50.40;;;41.50;;
25982;SDS011;13773;48.868;10.730;2022-08-19T03:07:12;52.07;;;43.10;;
25982;SDS011;13773;48.868;10.730;2022-08-19T03:09:38;52.37;;;42.47;;
25982;SDS011;13773;48.868;10.730;2022-08-19T03:12:04;49.63;;;42.30;;
25982;SDS011;13773;48.868;10.730;2022-08-19T03:14:31;51.63;;;43.37;;
25982;SDS011;13773;48.868;10.730;2022-08-19T03:16:57;52.73;;;43.73;;
25982;SDS011;13773;48.868;10.730;2022-08-19T03:19:23;54.83;;;44.07;;
25982;SDS011;13773;48.868;10.730;2022-08-19T03:21:49;51.70;;;43.30;;
25982;SDS011;13773;48.868;10.730;2022-08-19T03:24:16;54.83;;;43.33;;
25982;SDS011;13773;48.868;10.730;2022-08-19T03:26:45;54.93;;;43.97;;
25982;SDS011;13773;48.868;10.730;2022-08-19T03:29:14;51.50;;;44.20;;
25982;SDS011;13773;48.868;10.730;2022-08-19T03:31:41;55.40;;;43.90;;
25982;SDS011;13773;48.868;10.730;2022-08-19T03:34:16;54.70;;;44.93;;
25982;SDS011;13773;48.868;10.730;2022-08-19T03:36:54;56.33;;;42.87;;
25982;SDS011;13773;48.868;10.730;2022-08-19T03:39:22;52.23;;;43.73;;
25982;SDS011;13773;48.868;10.730;2022-08-19T03:41:51;53.87;;;42.97;;
25982;SDS011;13773;48.868;10.730;2022-08-19T03:44:19;50.43;;;42.67;;
25982;SDS011;13773;48.868;10.730;2022-08-19T03:46:47;52.40;;;42.80;;
25982;SDS011;13773;48.868;10.730;2022-08-19T03:49:16;54.23;;;43.90;;
25982;SDS011;13773;48.868;10.730;2022-08-19T03:51:43;49.17;;;41.50;;
25982;SDS011;13773;48.868;10.730;2022-08-19T03:54:10;50.40;;;42.07;;
25982;SDS011;13773;48.868;10.730;2022-08-19T03:56:38;50.73;;;42.80;;
25982;SDS011;13773;48.868;10.730;2022-08-19T03:59:06;53.83;;;42.73;;
25982;SDS011;13773;48.868;10.730;2022-08-19T04:01:34;52.73;;;42.87;;
25982;SDS011;13773;48.868;10.730;2022-08-19T04:04:00;49.60;;;40.93;;
25982;SDS011;13773;48.868;10.730;2022-08-19T04:06:29;51.03;;;41.50;;
25982;SDS011;13773;48.868;10.730;2022-08-19T04:08:56;51.27;;;41.23;;
25982;SDS011;13773;48.868;10.730;2022-08-19T04:11:28;53.30;;;42.23;;
25982;SDS011;13773;48.868;10.730;2022-08-19T04:13:55;51.40;;;41.33;;
25982;SDS011;13773;48.868;10.730;2022-08-19T04:16:23;49.53;;;42.20;;
25982;SDS011;13773;48.868;10.730;2022-08-19T04:18:53;48.87;;;40.63;;
25982;SDS011;13773;48.868;10.730;2022-08-19T04:21:21;48.20;;;39.83;;
25982;SDS011;13773;48.868;10.730;2022-08-19T04:23:49;47.30;;;39.73;;
25982;SDS011;13773;48.868;10.730;2022-08-19T04:26:16;47.83;;;41.20;;
25982;SDS011;13773;48.868;10.730;2022-08-19T04:28:43;47.73;;;39.97;;
25982;SDS011;13773;48.868;10.730;2022-08-19T04:31:18;49.50;;;39.60;;
25982;SDS011;13773;48.868;10.730;2022-08-19T04:33:46;49.23;;;39.43;;
25982;SDS011;13773;48.868;10.730;2022-08-19T04:36:21;45.67;;;39.00;;
25982;SDS011;13773;48.868;10.730;2022-08-19T04:38:58;49.10;;;39.50;;
25982;SDS011;13773;48.868;10.730;2022-08-19T04:41:25;49.10;;;40.00;;
25982;SDS011;13773;48.868;10.730;2022-08-19T04:44:11;47.27;;;38.97;;
25982;SDS011;13773;48.868;10.730;2022-08-19T04:46:38;47.73;;;40.07;;
25982;SDS011;13773;48.868;10.730;2022-08-19T04:49:05;52.57;;;40.67;;
25982;SDS011;13773;48.868;10.730;2022-08-19T04:51:32;48.53;;;39.47;;
25982;SDS011;13773;48.868;10.730;2022-08-19T04:53:59;52.07;;;41.07;;
25982;SDS011;13773;48.868;10.730;2022-08-19T04:56:26;52.00;;;41.00;;
25982;SDS011;13773;48.868;10.730;2022-08-19T04:58:53;50.00;;;40.93;;
25982;SDS011;13773;48.868;10.730;2022-08-19T05:01:21;48.17;;;38.63;;
25982;SDS011;13773;48.868;10.730;2022-08-19T05:03:53;49.30;;;39.70;;
25982;SDS011;13773;48.868;10.730;2022-08-19T05:06:21;47.30;;;38.17;;
25982;SDS011;13773;48.868;10.730;2022-08-19T05:08:48;50.23;;;39.50;;
25982;SDS011;13773;48.868;10.730;2022-08-19T05:11:16;46.87;;;38.50;;
25982;SDS011;13773;48.868;10.730;2022-08-19T05:13:50;44.20;;;36.70;;
25982;SDS011;13773;48.868;10.730;2022-08-19T05:16:18;45.13;;;38.43;;
25982;SDS011;13773;48.868;10.730;2022-08-19T05:18:45;45.77;;;38.00;;
25982;SDS011;13773;48.868;10.730;2022-08-19T05:21:30;44.53;;;37.37;;
25982;SDS011;13773;48.868;10.730;2022-08-19T05:24:15;44.27;;;37.07;;
25982;SDS011;13773;48.868;10.730;2022-08-19T05:26:43;46.50;;;38.13;;
25982;SDS011;13773;48.868;10.730;2022-08-19T05:29:12;45.07;;;37.37;;
25982;SDS011;13773;48.868;10.730;2022-08-19T05:31:42;46.10;;;38.37;;
25982;SDS011;13773;48.868;10.730;2022-08-19T05:34:08;44.00;;;36.90;;
25982;SDS011;13773;48.868;10.730;2022-08-19T05:36:36;45.70;;;38.70;;
25982;SDS011;13773;48.868;10.730;2022-08-19T05:39:10;46.47;;;38.43;;
25982;SDS011;13773;48.868;10.730;2022-08-19T05:41:44;48.13;;;38.90;;
25982;SDS011;13773;48.868;10.730;2022-08-19T05:44:11;43.57;;;37.37;;
25982;SDS011;13773;48.868;10.730;2022-08-19T05:46:37;44.10;;;38.77;;
25982;SDS011;13773;48.868;10.730;2022-08-19T05:49:04;46.27;;;39.43;;
25982;SDS011;13773;48.868;10.730;2022-08-19T05:51:32;48.03;;;38.87;;
25982;SDS011;13773;48.868;10.730;2022-08-19T05:54:00;47.70;;;38.73;;
25982;SDS011;13773;48.868;10.730;2022-08-19T05:56:30;45.27;;;38.53;;
25982;SDS011;13773;48.868;10.730;2022-08-19T05:58:57;46.40;;;39.27;;
25982;SDS011;13773;48.868;10.730;2022-08-19T06:01:24;50.43;;;40.67;;
25982;SDS011;13773;48.868;10.730;2022-08-19T06:03:51;54.33;;;40.97;;
25982;SDS011;13773;48.868;10.730;2022-08-19T06:06:17;49.93;;;39.27;;
25982;SDS011;13773;48.868;10.730;2022-08-19T06:08:43;53.17;;;40.50;;
25982;SDS011;13773;48.868;10.730;2022-08-19T06:13:57;53.13;;;41.63;;
25982;SDS011;13773;48.868;10.730;2022-08-19T06:16:26;51.50;;;40.93;;
25982;SDS011;13773;48.868;10.730;2022-08-19T06:18:53;51.47;;;41.67;;
25982;SDS011;13773;48.868;10.730;2022-08-19T06:21:22;52.53;;;42.53;;
25982;SDS011;13773;48.868;10.730;2022-08-19T06:23:49;52.20;;;42.67;;
25982;SDS011;13773;48.868;10.730;2022-08-19T06:26:16;50.20;;;40.57;;
25982;SDS011;13773;48.868;10.730;2022-08-19T06:28:44;53.83;;;43.00;;
25982;SDS011;13773;48.868;10.730;2022-08-19T06:31:14;54.77;;;42.37;;
25982;SDS011;13773;48.868;10.730;2022-08-19T06:33:48;54.73;;;43.23;;
25982;SDS011;13773;48.868;10.730;2022-08-19T06:38:43;54.33;;;41.70;;
25982;SDS011;13773;48.868;10.730;2022-08-19T06:41:09;54.40;;;43.17;;
25982;SDS011;13773;48.868;10.730;2022-08-19T06:43:35;55.20;;;42.47;;
25982;SDS011;13773;48.868;10.730;2022-08-19T06:46:01;54.13;;;41.63;;
25982;SDS011;13773;48.868;10.730;2022-08-19T06:48:28;51.47;;;40.43;;
25982;SDS011;13773;48.868;10.730;2022-08-19T06:50:54;51.43;;;41.13;;
25982;SDS011;13773;48.868;10.730;2022-08-19T06:53:21;52.97;;;40.17;;
25982;SDS011;13773;48.868;10.730;2022-08-19T06:55:46;54.80;;;42.67;;
25982;SDS011;13773;48.868;10.730;2022-08-19T06:58:12;50.30;;;41.27;;
25982;SDS011;13773;48.868;10.730;2022-08-19T07:00:39;55.10;;;41.17;;
25982;SDS011;13773;48.868;10.730;2022-08-19T07:03:05;52.27;;;42.20;;
25982;SDS011;13773;48.868;10.730;2022-08-19T07:05:31;52.63;;;42.57;;
25982;SDS011;13773;48.868;10.730;2022-08-19T07:07:56;52.60;;;40.70;;
25982;SDS011;13773;48.868;10.730;2022-08-19T07:10:22;50.83;;;40.47;;
25982;SDS011;13773;48.868;10.730;2022-08-19T07:12:48;50.37;;;40.37;;
25982;SDS011;13773;48.868;10.730;2022-08-19T07:15:15;48.87;;;40.03;;
25982;SDS011;13773;48.868;10.730;2022-08-19T07:17:42;48.37;;;39.70;;
25982;SDS011;13773;48.868;10.730;2022-08-19T07:20:08;48.80;;;38.93;;
25982;SDS011;13773;48.868;10.730;2022-08-19T07:22:35;50.80;;;38.60;;
25982;SDS011;13773;48.868;10.730;2022-08-19T07:25:05;52.67;;;39.30;;
25982;SDS011;13773;48.868;10.730;2022-08-19T07:27:32;47.97;;;38.20;;
25982;SDS011;13773;48.868;10.730;2022-08-19T07:29:59;49.53;;;40.70;;
25982;SDS011;13773;48.868;10.730;2022-08-19T07:32:25;46.97;;;38.27;;
25982;SDS011;13773;48.868;10.730;2022-08-19T07:34:51;48.50;;;38.53;;
25982;SDS011;13773;48.868;10.730;2022-08-19T07:37:17;47.20;;;38.67;;
25982;SDS011;13773;48.868;10.730;2022-08-19T07:39:43;48.07;;;39.23;;
25982;SDS011;13773;48.868;10.730;2022-08-19T07:42:09;45.77;;;37.43;;
25982;SDS011;13773;48.868;10.730;2022-08-19T07:44:38;48.23;;;37.50;;
25982;SDS011;13773;48.868;10.730;2022-08-19T07:47:05;51.00;;;38.83;;
25982;SDS011;13773;48.868;10.730;2022-08-19T07:49:31;44.17;;;37.87;;
25982;SDS011;13773;48.868;10.730;2022-08-19T07:51:59;43.40;;;37.57;;
25982;SDS011;13773;48.868;10.730;2022-08-19T07:54:30;41.90;;;36.70;;
25982;SDS011;13773;48.868;10.730;2022-08-19T07:56:59;48.57;;;37.40;;
25982;SDS011;13773;48.868;10.730;2022-08-19T07:59:25;44.77;;;37.70;;
25982;SDS011;13773;48.868;10.730;2022-08-19T08:01:53;46.63;;;39.40;;
25982;SDS011;13773;48.868;10.730;2022-08-19T08:04:19;47.43;;;38.47;;
25982;SDS011;13773;48.868;10.730;2022-08-19T08:07:05;48.67;;;39.30;;
25982;SDS011;13773;48.868;10.730;2022-08-19T08:09:50;45.17;;;38.47;;
25982;SDS011;13773;48.868;10.730;2022-08-19T08:12:18;48.63;;;38.90;;
25982;SDS011;13773;48.868;10.730;2022-08-19T08:14:54;51.00;;;41.17;;
25982;SDS011;13773;48.868;10.730;2022-08-19T08:17:23;53.27;;;41.83;;
25982;SDS011;13773;48.868;10.730;2022-08-19T08:19:50;51.93;;;41.83;;
25982;SDS011;13773;48.868;10.730;2022-08-19T08:22:16;48.20;;;40.13;;
25982;SDS011;13773;48.868;10.730;2022-08-19T08:27:39;54.63;;;42.33;;
25982;SDS011;13773;48.868;10.730;2022-08-19T08:30:14;51.23;;;40.20;;
25982;SDS011;13773;48.868;10.730;2022-08-19T08:32:42;49.93;;;39.43;;
25982;SDS011;13773;48.868;10.730;2022-08-19T08:35:10;49.40;;;39.73;;
25982;SDS011;13773;48.868;10.730;2022-08-19T08:37:39;49.23;;;39.70;;
25982;SDS011;13773;48.868;10.730;2022-08-19T08:40:06;51.43;;;40.80;;
25982;SDS011;13773;48.868;10.730;2022-08-19T08:42:49;48.13;;;38.60;;
25982;SDS011;13773;48.868;10.730;2022-08-19T08:45:20;48.07;;;38.80;;
25982;SDS011;13773;48.868;10.730;2022-08-19T08:47:48;44.63;;;38.40;;
25982;SDS011;13773;48.868;10.730;2022-08-19T08:50:21;44.07;;;37.20;;
25982;SDS011;13773;48.868;10.730;2022-08-19T08:53:17;43.07;;;35.57;;
25982;SDS011;13773;48.868;10.730;2022-08-19T08:55:44;41.47;;;35.97;;
25982;SDS011;13773;48.868;10.730;2022-08-19T08:58:20;43.60;;;35.80;;
25982;SDS011;13773;48.868;10.730;2022-08-19T09:00:54;40.53;;;36.17;;
25982;SDS011;13773;48.868;10.730;2022-08-19T09:03:23;38.53;;;33.73;;
25982;SDS011;13773;48.868;10.730;2022-08-19T09:06:04;40.33;;;35.93;;
25982;SDS011;13773;48.868;10.730;2022-08-19T09:08:40;39.63;;;34.07;;
25982;SDS011;13773;48.868;10.730;2022-08-19T09:11:09;39.60;;;35.23;;
25982;SDS011;13773;48.868;10.730;2022-08-19T09:14:04;43.63;;;36.50;;
25982;SDS011;13773;48.868;10.730;2022-08-19T09:16:51;43.03;;;35.07;;
25982;SDS011;13773;48.868;10.730;2022-08-19T09:19:16;44.83;;;36.73;;
25982;SDS011;13773;48.868;10.730;2022-08-19T09:21:42;40.07;;;34.40;;
25982;SDS011;13773;48.868;10.730;2022-08-19T09:24:08;40.03;;;35.23;;
25982;SDS011;13773;48.868;10.730;2022-08-19T09:26:34;40.17;;;35.83;;
25982;SDS011;13773;48.868;10.730;2022-08-19T09:29:00;39.13;;;34.57;;
25982;SDS011;13773;48.868;10.730;2022-08-19T09:31:29;39.23;;;33.93;;
25982;SDS011;13773;48.868;10.730;2022-08-19T09:33:57;35.90;;;31.20;;
25982;SDS011;13773;48.868;10.730;2022-08-19T09:36:25;34.43;;;30.77;;
25982;SDS011;13773;48.868;10.730;2022-08-19T09:38:55;37.67;;;33.57;;
25982;SDS011;13773;48.868;10.730;2022-08-19T09:41:23;38.77;;;33.00;;
25982;SDS011;13773;48.868;10.730;2022-08-19T09:43:50;34.67;;;30.90;;
25982;SDS011;13773;48.868;10.730;2022-08-19T09:46:21;32.57;;;29.00;;
25982;SDS011;13773;48.868;10.730;2022-08-19T09:48:48;31.87;;;28.67;;
25982;SDS011;13773;48.868;10.730;2022-08-19T09:51:22;31.13;;;28.03;;
25982;SDS011;13773;48.868;10.730;2022-08-19T09:53:51;33.60;;;30.00;;
25982;SDS011;13773;48.868;10.730;2022-08-19T09:56:19;34.13;;;30.60;;
25982;SDS011;13773;48.868;10.730;2022-08-19T09:58:46;32.70;;;29.23;;
25982;SDS011;13773;48.868;10.730;2022-08-19T10:01:23;32.00;;;28.47;;
25982;SDS011;13773;48.868;10.730;2022-08-19T10:03:51;32.30;;;28.93;;
25982;SDS011;13773;48.868;10.730;2022-08-19T10:06:20;32.63;;;27.60;;
25982;SDS011;13773;48.868;10.730;2022-08-19T10:08:47;31.93;;;28.57;;
25982;SDS011;13773;48.868;10.730;2022-08-19T10:11:13;32.20;;;28.73;;
25982;SDS011;13773;48.868;10.730;2022-08-19T10:13:41;32.83;;;29.47;;
25982;SDS011;13773;48.868;10.730;2022-08-19T10:16:09;31.97;;;28.57;;
25982;SDS011;13773;48.868;10.730;2022-08-19T10:18:37;34.00;;;30.40;;
25982;SDS011;13773;48.868;10.730;2022-08-19T10:21:14;30.20;;;26.77;;
25982;SDS011;13773;48.868;10.730;2022-08-19T10:23:43;30.40;;;27.20;;
25982;SDS011;13773;48.868;10.730;2022-08-19T10:26:15;28.63;;;25.37;;
25982;SDS011;13773;48.868;10.730;2022-08-19T10:28:42;29.10;;;26.10;;
25982;SDS011;13773;48.868;10.730;2022-08-19T10:31:09;29.60;;;26.63;;
25982;SDS011;13773;48.868;10.730;2022-08-19T10:33:37;30.97;;;27.70;;
25982;SDS011;13773;48.868;10.730;2022-08-19T10:36:08;29.43;;;26.30;;
25982;SDS011;13773;48.868;10.730;2022-08-19T10:38:37;28.60;;;25.73;;
25982;SDS011;13773;48.868;10.730;2022-08-19T10:41:07;29.13;;;26.13;;
25982;SDS011;13773;48.868;10.730;2022-08-19T10:43:54;30.33;;;27.13;;
25982;SDS011;13773;48.868;10.730;2022-08-19T10:46:22;31.83;;;28.50;;
25982;SDS011;13773;48.868;10.730;2022-08-19T10:48:49;31.67;;;28.37;;
25982;SDS011;13773;48.868;10.730;2022-08-19T10:51:15;31.77;;;28.47;;
25982;SDS011;13773;48.868;10.730;2022-08-19T10:54:00;32.27;;;26.70;;
25982;SDS011;13773;48.868;10.730;2022-08-19T10:56:27;32.07;;;28.30;;
25982;SDS011;13773;48.868;10.730;2022-08-19T10:59:13;29.27;;;26.17;;
25982;SDS011;13773;48.868;10.730;2022-08-19T11:01:39;31.17;;;27.83;;
25982;SDS011;13773;48.868;10.730;2022-08-19T11:04:06;33.43;;;29.83;;
25982;SDS011;13773;48.868;10.730;2022-08-19T11:06:35;32.77;;;29.13;;
25982;SDS011;13773;48.868;10.730;2022-08-19T11:09:01;34.03;;;29.27;;
25982;SDS011;13773;48.868;10.730;2022-08-19T11:11:28;30.90;;;27.73;;
25982;SDS011;13773;48.868;10.730;2022-08-19T11:13:54;29.53;;;26.53;;
25982;SDS011;13773;48.868;10.730;2022-08-19T11:16:20;29.27;;;26.07;;
25982;SDS011;13773;48.868;10.730;2022-08-19T11:18:52;33.20;;;29.63;;
25982;SDS011;13773;48.868;10.730;2022-08-19T11:21:24;32.07;;;28.53;;
25982;SDS011;13773;48.868;10.730;2022-08-19T11:23:57;33.53;;;30.03;;
25982;SDS011;13773;48.868;10.730;2022-08-19T11:26:24;33.57;;;30.17;;
25982;SDS011;13773;48.868;10.730;2022-08-19T11:28:50;32.80;;;29.37;;
25982;SDS011;13773;48.868;10.730;2022-08-19T11:31:19;31.97;;;28.57;;
25982;SDS011;13773;48.868;10.730;2022-08-19T11:33:46;33.93;;;30.43;;
25982;SDS011;13773;48.868;10.730;2022-08-19T11:36:16;33.20;;;29.73;;
25982;SDS011;13773;48.868;10.730;2022-08-19T11:38:47;35.20;;;31.47;;
25982;SDS011;13773;48.868;10.730;2022-08-19T11:41:14;34.87;;;30.37;;
25982;SDS011;13773;48.868;10.730;2022-08-19T11:43:41;35.87;;;31.07;;
25982;SDS011;13773;48.868;10.730;2022-08-19T11:46:10;33.93;;;30.33;;
25982;SDS011;13773;48.868;10.730;2022-08-19T11:48:38;30.97;;;27.70;;
25982;SDS011;13773;48.868;10.730;2022-08-19T11:51:09;32.60;;;29.07;;
25982;SDS011;13773;48.868;10.730;2022-08-19T11:53:41;35.13;;;31.47;;
25982;SDS011;13773;48.868;10.730;2022-08-19T11:56:07;31.10;;;27.60;;
25982;SDS011;13773;48.868;10.730;2022-08-19T11:58:33;30.63;;;27.40;;
25982;SDS011;13773;48.868;10.730;2022-08-19T12:01:01;32.03;;;28.53;;
25982;SDS011;13773;48.868;10.730;2022-08-19T12:03:30;35.70;;;29.97;;
25982;SDS011;13773;48.868;10.730;2022-08-19T12:05:56;33.33;;;29.70;;
25982;SDS011;13773;48.868;10.730;2022-08-19T12:08:22;34.60;;;30.30;;
25982;SDS011;13773;48.868;10.730;2022-08-19T12:10:47;33.13;;;28.33;;
25982;SDS011;13773;48.868;10.730;2022-08-19T12:13:14;31.23;;;27.07;;
25982;SDS011;13773;48.868;10.730;2022-08-19T12:15:43;30.50;;;26.83;;
25982;SDS011;13773;48.868;10.730;2022-08-19T12:18:10;32.00;;;28.30;;
25982;SDS011;13773;48.868;10.730;2022-08-19T12:20:37;34.83;;;31.27;;
25982;SDS011;13773;48.868;10.730;2022-08-19T12:23:05;31.60;;;28.27;;
25982;SDS011;13773;48.868;10.730;2022-08-19T12:25:31;34.07;;;30.43;;
25982;SDS011;13773;48.868;10.730;2022-08-19T12:27:58;32.03;;;28.83;;
25982;SDS011;13773;48.868;10.730;2022-08-19T12:30:24;36.07;;;32.03;;
25982;SDS011;13773;48.868;10.730;2022-08-19T12:32:50;35.70;;;31.10;;
25982;SDS011;13773;48.868;10.730;2022-08-19T12:35:16;33.23;;;28.50;;
25982;SDS011;13773;48.868;10.730;2022-08-19T12:37:45;32.20;;;28.70;;
25982;SDS011;13773;48.868;10.730;2022-08-19T12:40:11;33.53;;;29.93;;
25982;SDS011;13773;48.868;10.730;2022-08-19T12:42:38;34.47;;;30.73;;
25982;SDS011;13773;48.868;10.730;2022-08-19T12:45:10;32.03;;;28.53;;
25982;SDS011;13773;48.868;10.730;2022-08-19T12:47:37;34.37;;;30.67;;
25982;SDS011;13773;48.868;10.730;2022-08-19T12:50:04;34.47;;;30.87;;
25982;SDS011;13773;48.868;10.730;2022-08-19T12:52:33;34.10;;;30.13;;
25982;SDS011;13773;48.868;10.730;2022-08-19T12:55:02;33.53;;;29.93;;
25982;SDS011;13773;48.868;10.730;2022-08-19T12:57:28;39.23;;;34.57;;
25982;SDS011;13773;48.868;10.730;2022-08-19T12:59:56;37.77;;;33.63;;
25982;SDS011;13773;48.868;10.730;2022-08-19T13:02:21;38.23;;;33.20;;
25982;SDS011;13773;48.868;10.730;2022-08-19T13:04:47;36.03;;;31.60;;
25982;SDS011;13773;48.868;10.730;2022-08-19T13:07:13;38.27;;;34.03;;
25982;SDS011;13773;48.868;10.730;2022-08-19T13:09:39;39.63;;;35.53;;
25982;SDS011;13773;48.868;10.730;2022-08-19T13:12:07;38.60;;;34.43;;
25982;SDS011;13773;48.868;10.730;2022-08-19T13:14:37;43.50;;;36.10;;
25982;SDS011;13773;48.868;10.730;2022-08-19T13:17:05;51.53;;;40.80;;
25982;SDS011;13773;48.868;10.730;2022-08-19T13:19:31;50.00;;;41.63;;
25982;SDS011;13773;48.868;10.730;2022-08-19T13:21:57;51.93;;;43.13;;
25982;SDS011;13773;48.868;10.730;2022-08-19T13:24:23;53.10;;;40.60;;
25982;SDS011;13773;48.868;10.730;2022-08-19T13:26:50;50.40;;;38.57;;
25982;SDS011;13773;48.868;10.730;2022-08-19T13:29:15;62.73;;;43.27;;
25982;SDS011;13773;48.868;10.730;2022-08-19T13:32:00;53.90;;;39.37;;
25982;SDS011;13773;48.868;10.730;2022-08-19T13:34:44;52.27;;;40.73;;
25982;SDS011;13773;48.868;10.730;2022-08-19T13:37:11;62.60;;;44.03;;
25982;SDS011;13773;48.868;10.730;2022-08-19T13:39:37;61.20;;;43.03;;
25982;SDS011;13773;48.868;10.730;2022-08-19T13:42:03;53.90;;;42.43;;
25982;SDS011;13773;48.868;10.730;2022-08-19T13:44:30;65.47;;;45.93;;
25982;SDS011;13773;48.868;10.730;2022-08-19T13:47:00;59.27;;;42.37;;
25982;SDS011;13773;48.868;10.730;2022-08-19T13:49:30;80.67;;;45.37;;
25982;SDS011;13773;48.868;10.730;2022-08-19T13:51:56;58.27;;;42.60;;
25982;SDS011;13773;48.868;10.730;2022-08-19T13:54:22;85.83;;;46.87;;
25982;SDS011;13773;48.868;10.730;2022-08-19T13:56:48;78.67;;;49.33;;
25982;SDS011;13773;48.868;10.730;2022-08-19T13:59:14;79.87;;;48.73;;
25982;SDS011;13773;48.868;10.730;2022-08-19T14:01:40;73.23;;;48.00;;
25982;SDS011;13773;48.868;10.730;2022-08-19T14:04:06;86.47;;;49.77;;
25982;SDS011;13773;48.868;10.730;2022-08-19T14:06:33;83.07;;;46.87;;
25982;SDS011;13773;48.868;10.730;2022-08-19T14:08:59;67.27;;;42.90;;
25982;SDS011;13773;48.868;10.730;2022-08-19T14:11:27;64.10;;;42.20;;
25982;SDS011;13773;48.868;10.730;2022-08-19T14:13:53;60.10;;;39.73;;
25982;SDS011;13773;48.868;10.730;2022-08-19T14:16:19;55.33;;;36.07;;
25982;SDS011;13773;48.868;10.730;2022-08-19T14:18:46;45.43;;;33.43;;
25982;SDS011;13773;48.868;10.730;2022-08-19T14:21:30;45.00;;;31.73;;
25982;SDS011;13773;48.868;10.730;2022-08-19T14:23:56;35.20;;;28.60;;
25982;SDS011;13773;48.868;10.730;2022-08-19T14:26:22;28.87;;;23.73;;